Terminal Aerodrome Forecast
Issued by NWS

Home | Current Version | Previous Version | Text Only | Print | Product List | Glossary On
Versions: 1 2 3 4 5 6 7 8 9 10 11 12 13 14
000
FTUS44 KHGX 252100 AAA
TAFLBX
TAF AMD
KLBX 252100Z 2521/2618 17012KT P6SM BKN030 OVC070
      TEMPO 2521/2522 -RA
     FM260400 16005KT P6SM SCT025
      TEMPO 2611/2613 BKN025=

USA.gov is the U.S. government's official web portal to all federal, state and local government web resources and services.